TFM - Tactical Decision Aid (Experimental) INFO Settings
ID: Runway Winds: CIG/VIS Threshold: METAR Board: Map:

KBHM - Birmingham-Shuttlesworth Intl

Updated at: 2306 UTC 20 Feb 2018
Latest TAF at: 1739 UTC 20 Feb 2018

TAF Board

Time2253Z21/00Z21/01Z21/02Z21/03Z21/04Z21/05Z21/06Z21/07Z21/08Z21/09Z21/10Z21/11Z21/12Z
TypeOBSPRVLPRVLPRVLPRVLPRVLPRVLPRVLPRVLPRVLPRVLPRVLPRVLPRVL
VIS10>6>6>6>6>6>6>6>6>6>6>6>6>6
CIG85404040401212121288888
CoverBKNBKNBKNBKNBKNOVCOVCOVCOVCOVCOVCOVCOVCOVC
FltCatVFRVFRVFRVFRVFRMVFRMVFRMVFRMVFRIFRIFRIFRIFRIFR
WX----------------------------
WDir150160160160160160160160160170170170170170
WSpd86666555544444
WGst16--------------------------
TAF
KBHM 201739Z 2018/2118 16012G20KT P6SM BKN060
  FM210000 16006KT P6SM BKN040
  FM210400 16005KT P6SM BKN012 OVC025
  FM210800 17004KT P6SM OVC008
  FM211500 17008KT P6SM BKN015


METAR
KBHM 202253Z 15008G16KT 10SM BKN085 25/16 A3024 RMK AO2 SLP234 T02500161
KBHM 202153Z 17009G16KT 10SM SCT040 BKN080 26/16 A3023 RMK AO2 SLP231 T02560161

TAF/METAR Board Legend

Potential Impact
  None Marginal Slight Moderate High
Visibility (sm) >5 3≤X≤5 2≤X<3 0.5≤X<2 <0.5
Ceiling (100 ft) >30 10≤X≤30 6≤X<10 2≤X<6 <2
Wind Speed (kt) <10 10≤X<20 20≤X<30 ≥30
Wind Gust (kt) <15 15≤X<25 25≤X<35 ≥35
Weather No Wx Reported VCTS -TS,-FZRA TS,FZRA +TS,+FZRA





Page loaded:  23:06 UTC  |   03:06 PM Pacific  |   04:06 PM Mountain  |   05:06 PM Central  |   06:06 PM Eastern